Time;durP1;ratioP1;P1;durP2;ratioP2;P2;SDS_P1;SDS_P2;PMS_P1;PMS_P2;Temp;Humidity;BMP_temperature;BMP_pressure;BME280_temperature;BME280_humidity;BME280_pressure;Samples;Min_cycle;Max_cycle;Signal;HPM_P1;HPM_P2
2021/03/10 00:01:51;;;;;;;209.77;136.10;;;179.60;1843.20;;;;;;5012722;28;20112;-65
2021/03/10 00:04:17;;;;;;;207.45;135.15;;;179.60;1843.20;;;;;;5012515;28;20022;-67
2021/03/10 00:06:43;;;;;;;204.07;131.45;;;179.40;1843.20;;;;;;5012263;28;20022;-67
2021/03/10 00:09:08;;;;;;;210.07;130.50;;;179.40;1843.20;;;;;;5000244;28;20083;-65
2021/03/10 00:11:34;;;;;;;210.75;135.90;;;179.40;1843.20;;;;;;5014861;28;20038;-68
2021/03/10 00:14:00;;;;;;;214.93;137.75;;;179.60;1843.20;;;;;;5012619;28;20030;-67
2021/03/10 00:16:25;;;;;;;209.45;134.18;;;179.60;1843.20;;;;;;5012376;28;20022;-67
2021/03/10 00:18:51;;;;;;;205.02;129.73;;;179.40;1843.20;;;;;;5012352;28;20487;-67
2021/03/10 00:21:17;;;;;;;257.90;147.80;;;154.30;1920.00;;;;;;5012378;28;20034;-67
2021/03/10 00:23:43;;;;;;;168.15;100.25;;;154.40;1894.40;;;;;;5012183;28;20495;-67
2021/03/10 00:26:09;;;;;;;146.20;96.93;;;154.20;1945.60;;;;;;5012271;28;20026;-67
2021/03/10 00:28:34;;;;;;;159.07;97.88;;;153.90;1971.20;;;;;;5012365;28;20037;-66
2021/03/10 00:31:00;;;;;;;108.25;72.18;;;154.20;1945.60;;;;;;5011804;28;20401;-65
2021/03/10 00:33:26;;;;;;;161.00;112.22;;;154.20;1945.60;;;;;;5012273;28;20034;-65
2021/03/10 00:35:52;;;;;;;129.65;86.15;;;154.00;1971.20;;;;;;5012764;28;20082;-64
2021/03/10 00:38:17;;;;;;;126.45;80.80;;;153.90;1971.20;;;;;;5015747;28;20109;-65
2021/03/10 00:40:43;;;;;;;134.63;85.80;;;153.80;1996.80;;;;;;5015679;28;20080;-65
2021/03/10 00:43:09;;;;;;;121.97;77.57;;;153.80;1971.20;;;;;;5015824;28;20030;-67
2021/03/10 00:45:34;;;;;;;119.05;77.00;;;153.80;2022.40;;;;;;5015754;28;20465;-67
2021/03/10 00:48:00;;;;;;;112.20;71.68;;;153.60;2022.40;;;;;;5008064;28;20088;-67
2021/03/10 00:50:28;;;;;;;113.85;72.43;;;153.70;2022.40;;;;;;5012589;28;20030;-68
2021/03/10 00:52:54;;;;;;;118.95;72.15;;;154.00;1996.80;;;;;;5015305;28;20037;-67
2021/03/10 00:55:20;;;;;;;114.35;75.22;;;153.70;2022.40;;;;;;5015844;28;20377;-65
2021/03/10 00:57:46;;;;;;;114.35;71.95;;;153.80;2022.40;;;;;;5015424;28;20033;-68
2021/03/10 01:00:12;;;;;;;120.13;76.35;;;153.90;1996.80;;;;;;5015291;28;20014;-67
2021/03/10 01:02:38;;;;;;;111.72;74.85;;;153.60;1996.80;;;;;;5015439;28;20536;-67
2021/03/10 01:05:05;;;;;;;136.50;90.00;;;128.90;2022.40;;;;;;5015727;28;20045;-65
2021/03/10 01:07:31;;;;;;;91.10;59.97;;;153.60;2048.00;;;;;;5015293;28;20109;-65
2021/03/10 01:09:56;;;;;;;94.85;59.70;;;153.60;2048.00;;;;;;5015665;28;20164;-68
2021/03/10 01:12:22;;;;;;;104.80;64.93;;;153.90;1996.80;;;;;;5015213;28;20537;-68
2021/03/10 01:14:48;;;;;;;114.85;70.93;;;154.10;1971.20;;;;;;5015374;28;20030;-67
2021/03/10 01:17:13;;;;;;;91.40;59.63;;;154.30;1920.00;;;;;;5014942;28;20053;-68
2021/03/10 01:19:39;;;;;;;81.45;54.95;;;154.50;1920.00;;;;;;5015268;28;20093;-64
2021/03/10 01:22:05;;;;;;;79.38;50.80;;;154.40;1920.00;;;;;;5015414;28;20129;-68
2021/03/10 01:24:30;;;;;;;79.55;50.95;;;154.50;1945.60;;;;;;5015020;28;20026;-67
2021/03/10 01:26:56;;;;;;;84.22;52.50;;;179.30;1894.40;;;;;;5014937;28;20029;-67
2021/03/10 01:29:22;;;;;;;89.63;59.63;;;154.30;1971.20;;;;;;5014998;28;20030;-68
2021/03/10 01:31:48;;;;;;;63.45;44.25;;;154.30;1971.20;;;;;;5014487;28;20286;-68
2021/03/10 01:34:14;;;;;;;77.05;48.35;;;154.20;1945.60;;;;;;5014884;28;20030;-68
2021/03/10 01:36:40;;;;;;;85.38;51.78;;;154.40;1945.60;;;;;;5014798;28;20073;-67
2021/03/10 01:39:05;;;;;;;80.53;51.08;;;154.50;1920.00;;;;;;5014593;28;20068;-67
2021/03/10 01:41:31;;;;;;;61.63;41.95;;;179.20;1894.40;;;;;;5014787;28;20053;-67
2021/03/10 01:43:57;;;;;;;67.85;44.55;;;154.40;1945.60;;;;;;5014811;28;20030;-68
2021/03/10 01:46:24;;;;;;;63.90;42.55;;;154.50;1894.40;;;;;;5014290;28;20026;-67
2021/03/10 01:48:50;;;;;;;54.42;37.70;;;179.20;1894.40;;;;;;5014586;28;20018;-68
2021/03/10 01:51:18;;;;;;;61.67;41.53;;;154.10;1996.80;;;;;;5014851;28;20033;-68
2021/03/10 01:53:43;;;;;;;62.70;40.42;;;154.20;1945.60;;;;;;5014749;28;20071;-68
2021/03/10 01:56:10;;;;;;;62.45;42.40;;;153.70;1996.80;;;;;;5014399;28;20026;-68
2021/03/10 01:58:37;;;;;;;62.40;43.45;;;128.90;2022.40;;;;;;5014759;28;20029;-67
2021/03/10 02:01:03;;;;;;;66.40;46.38;;;128.80;2048.00;;;;;;5014570;28;20029;-68
2021/03/10 02:03:29;;;;;;;60.13;42.80;;;128.90;2048.00;;;;;;5014677;28;20598;-65
2021/03/10 02:05:54;;;;;;;58.97;40.22;;;153.90;2022.40;;;;;;5014389;28;20013;-68
2021/03/10 02:08:36;;;;;;;59.83;41.40;;;128.90;2048.00;;;;;;5014453;28;20033;-67
2021/03/10 02:11:18;;;;;;;64.32;48.70;;;128.70;2099.20;;;;;;5007483;28;20026;-67
2021/03/10 02:13:49;;;;;;;56.33;37.40;;;128.90;2073.60;;;;;;5014051;28;20076;-67
2021/03/10 02:16:21;;;;;;;53.13;35.50;;;128.90;2073.60;;;;;;5014173;28;20102;-67
2021/03/10 02:18:53;;;;;;;62.53;38.25;;;128.90;2073.60;;;;;;5013945;28;20018;-67
2021/03/10 02:21:39;;;;;;;49.88;36.38;;;153.60;2048.00;;;;;;5013948;28;20037;-67
2021/03/10 02:24:27;;;;;;;49.83;34.00;;;128.80;2073.60;;;;;;5007763;28;20380;-67
2021/03/10 02:27:04;;;;;;;51.35;33.65;;;128.80;2099.20;;;;;;5005879;28;20057;-66
2021/03/10 02:29:31;;;;;;;43.55;29.85;;;153.70;2073.60;;;;;;5013799;28;20057;-67
2021/03/10 02:31:58;;;;;;;41.45;27.80;;;153.90;2048.00;;;;;;5013326;28;20140;-68
2021/03/10 02:34:26;;;;;;;89.32;64.97;;;153.80;2048.00;;;;;;5013764;28;20018;-67
2021/03/10 02:36:53;;;;;;;46.95;32.47;;;154.10;2252.80;;;;;;5013577;28;20079;-67
2021/03/10 02:39:20;;;;;;;66.95;42.30;;;153.80;2022.40;;;;;;5013573;28;20101;-66
2021/03/10 02:41:46;;;;;;;59.22;37.05;;;;;;;;;;5013594;28;20377;-67
2021/03/10 02:44:14;;;;;;;62.35;42.67;;;;;;;;;;5013479;28;20041;-67
2021/03/10 02:46:41;;;;;;;38.47;28.58;;;;;;;;;;5013412;28;20484;-67
2021/03/10 02:49:07;;;;;;;63.00;44.58;;;154.10;1996.80;;;;;;5013509;28;20045;-66
2021/03/10 02:51:35;;;;;;;44.42;28.80;;;154.10;1996.80;;;;;;5013210;28;20026;-67
2021/03/10 02:54:03;;;;;;;46.45;31.45;;;153.90;2022.40;;;;;;5013675;28;20037;-67
2021/03/10 02:56:30;;;;;;;59.80;36.90;;;153.70;2048.00;;;;;;5013253;28;20025;-67
2021/03/10 02:58:56;;;;;;;44.85;32.28;;;153.80;2022.40;;;;;;5012393;28;20380;-67
2021/03/10 03:01:23;;;;;;;42.35;29.27;;;;;;;;;;5013093;28;20088;-67
2021/03/10 03:03:49;;;;;;;43.67;30.25;;;;;;;;;;5013190;28;20026;-66
2021/03/10 03:06:15;;;;;;;46.60;33.55;;;154.10;1996.80;;;;;;5013291;28;20447;-67
2021/03/10 03:08:41;;;;;;;41.20;31.27;;;153.80;2022.40;;;;;;5013078;28;20042;-67
2021/03/10 03:11:07;;;;;;;38.42;26.65;;;153.60;2252.80;;;;;;5013093;28;20546;-65
2021/03/10 03:13:33;;;;;;;37.58;28.27;;;128.90;2048.00;;;;;;5013189;28;20030;-66
2021/03/10 03:16:01;;;;;;;50.58;35.78;;;128.80;2252.80;;;;;;5013040;28;20399;-67
2021/03/10 03:18:28;;;;;;;44.40;30.92;;;153.70;2048.00;;;;;;5012796;28;20030;-67
2021/03/10 03:20:55;;;;;;;44.33;31.20;;;128.90;2073.60;;;;;;5012940;28;20480;-64
2021/03/10 03:23:23;;;;;;;40.67;30.40;;;128.90;2099.20;;;;;;5012849;28;20109;-67
2021/03/10 03:25:50;;;;;;;39.28;28.15;;;153.60;2022.40;;;;;;5013097;28;20817;-65
2021/03/10 03:28:19;;;;;;;43.30;30.02;;;128.90;2022.40;;;;;;5012926;28;20081;-65
2021/03/10 03:30:47;;;;;;;42.67;33.10;;;154.00;2022.40;;;;;;5012601;28;20014;-66
2021/03/10 03:33:15;;;;;;;40.22;29.63;;;;;;;;;;5012552;28;20547;-66
2021/03/10 03:35:42;;;;;;;44.28;30.70;;;;;;;;;;5012593;28;20033;-66
2021/03/10 03:38:09;;;;;;;65.80;43.38;;;;;;;;;;5012721;28;20168;-67
2021/03/10 03:40:35;;;;;;;63.38;42.75;;;;;;;;;;5012716;28;20029;-67
2021/03/10 03:43:03;;;;;;;51.67;35.58;;;179.30;1894.40;;;;;;5012387;28;20432;-65
2021/03/10 03:45:28;;;;;;;62.53;41.80;;;179.30;2150.40;;;;;;5012860;28;20042;-66
2021/03/10 03:47:56;;;;;;;71.30;45.38;;;179.40;1868.80;;;;;;5012560;28;20026;-67
2021/03/10 03:50:24;;;;;;;63.47;41.03;;;179.40;1868.80;;;;;;5000124;28;20014;-67
2021/03/10 03:52:50;;;;;;;61.85;40.28;;;179.30;1894.40;;;;;;5017464;28;20040;-67
2021/03/10 03:55:16;;;;;;;74.65;47.03;;;179.40;1868.80;;;;;;5013089;28;20022;-67
2021/03/10 03:57:41;;;;;;;78.47;50.70;;;179.30;1894.40;;;;;;5012530;28;20072;-67
2021/03/10 04:00:10;;;;;;;84.35;54.50;;;179.40;1894.40;;;;;;5012526;28;20030;-65
2021/03/10 04:02:36;;;;;;;55.90;41.28;;;179.20;1920.00;;;;;;5013093;28;20080;-67
2021/03/10 04:05:02;;;;;;;47.60;35.88;;;154.20;1945.60;;;;;;5012347;28;20021;-66
2021/03/10 04:07:28;;;;;;;52.90;34.80;;;153.90;1996.80;;;;;;5012595;28;20049;-64
2021/03/10 04:09:54;;;;;;;49.22;34.13;;;153.90;1996.80;;;;;;5013147;28;20057;-67
2021/03/10 04:12:19;;;;;;;45.85;32.95;;;154.10;1996.80;;;;;;5016263;28;20153;-64
2021/03/10 04:14:45;;;;;;;43.58;31.25;;;154.20;1971.20;;;;;;5016260;28;20029;-67
2021/03/10 04:17:11;;;;;;;44.25;29.30;;;153.90;1996.80;;;;;;5016366;28;20025;-65
2021/03/10 04:19:36;;;;;;;36.13;26.52;;;154.20;1971.20;;;;;;5016398;28;20030;-67
2021/03/10 04:22:02;;;;;;;37.38;27.10;;;154.10;1971.20;;;;;;5016207;28;20104;-67
2021/03/10 04:24:28;;;;;;;42.03;29.65;;;154.30;1945.60;;;;;;5016144;28;20022;-67
2021/03/10 04:26:54;;;;;;;38.85;28.90;;;154.50;1945.60;;;;;;5015924;28;20491;-67
2021/03/10 04:29:19;;;;;;;40.03;29.27;;;154.40;1945.60;;;;;;5015966;28;20030;-67
2021/03/10 04:31:45;;;;;;;39.30;29.00;;;154.50;1920.00;;;;;;5015525;28;20053;-67
2021/03/10 04:34:11;;;;;;;38.75;28.60;;;179.20;1920.00;;;;;;5015767;28;20026;-67
2021/03/10 04:36:36;;;;;;;51.83;35.75;;;154.40;1945.60;;;;;;5016239;28;20446;-64
2021/03/10 04:39:03;;;;;;;50.50;35.25;;;154.40;1920.00;;;;;;5015961;28;20022;-67
2021/03/10 04:41:28;;;;;;;60.75;42.28;;;154.30;1945.60;;;;;;5015797;28;20365;-64
2021/03/10 04:43:54;;;;;;;70.20;46.83;;;154.50;1945.60;;;;;;5015732;28;20033;-63
2021/03/10 04:46:20;;;;;;;90.88;58.33;;;179.20;1920.00;;;;;;5015643;28;20053;-65
2021/03/10 04:48:45;;;;;;;89.88;57.70;;;179.40;1894.40;;;;;;5015792;28;20018;-67
2021/03/10 04:51:11;;;;;;;95.97;63.17;;;179.40;2252.80;;;;;;5015404;28;20481;-64
2021/03/10 04:53:37;;;;;;;79.18;55.33;;;179.50;1894.40;;;;;;5015771;28;20054;-66
2021/03/10 04:56:03;;;;;;;68.63;45.95;;;179.20;1920.00;;;;;;5015658;28;20105;-63
2021/03/10 04:58:29;;;;;;;59.67;41.58;;;;;;;;;;5015509;28;20080;-66
2021/03/10 05:00:55;;;;;;;73.70;47.83;;;;;;;;;;5015343;28;20030;-67
2021/03/10 05:03:21;;;;;;;73.82;50.67;;;;;;;;;;5015148;28;20022;-66
2021/03/10 05:05:47;;;;;;;78.85;54.65;;;;;;;;;;5015486;28;20088;-67
2021/03/10 05:08:13;;;;;;;92.82;60.28;;;;;;;;;;5015205;28;20080;-66
2021/03/10 05:10:39;;;;;;;99.18;63.00;;;;;;;;;;5015345;28;20018;-65
2021/03/10 05:13:05;;;;;;;98.85;66.00;;;;;;;;;;5015204;28;20041;-66
2021/03/10 05:15:31;;;;;;;94.28;64.30;;;;;;;;;;5014837;28;20056;-66
2021/03/10 05:17:57;;;;;;;101.68;69.15;;;;;;;;;;5015384;28;20029;-66
2021/03/10 05:20:23;;;;;;;92.30;67.00;;;;;;;;;;5015154;28;20014;-66
2021/03/10 05:22:49;;;;;;;99.55;70.55;;;179.80;1843.20;;;;;;5014526;28;20026;-67
2021/03/10 05:25:15;;;;;;;101.18;73.60;;;179.60;1971.20;;;;;;5015085;28;20464;-66
2021/03/10 05:27:41;;;;;;;97.82;68.88;;;;;;;;;;5015055;28;20025;-67
2021/03/10 05:30:08;;;;;;;103.88;74.18;;;;;;;;;;5014764;28;20024;-66
2021/03/10 05:32:34;;;;;;;115.78;80.88;;;;;;;;;;5019906;28;20048;-63
2021/03/10 05:35:00;;;;;;;117.10;79.88;;;;;;;;;;5022763;28;20022;-63
2021/03/10 05:37:26;;;;;;;174.68;122.72;;;;;;;;;;5014563;28;20022;-66
2021/03/10 05:39:52;;;;;;;155.68;111.07;;;180.00;1868.80;;;;;;5014277;28;20085;-66
2021/03/10 05:42:18;;;;;;;138.77;100.18;;;179.80;1868.80;;;;;;5014537;28;20033;-66
2021/03/10 05:44:48;;;;;;;127.05;90.90;;;179.80;1868.80;;;;;;5014468;28;20046;-63
2021/03/10 05:47:13;;;;;;;128.63;87.18;;;179.80;1868.80;;;;;;5014638;28;20061;-64
2021/03/10 05:49:40;;;;;;;125.20;84.53;;;179.80;1894.40;;;;;;5014361;28;20061;-63
2021/03/10 05:52:06;;;;;;;135.05;91.30;;;179.80;1868.80;;;;;;5014361;28;20030;-67
2021/03/10 05:54:36;;;;;;;135.52;91.10;;;179.70;1894.40;;;;;;5014311;28;20029;-67
2021/03/10 05:57:04;;;;;;;122.43;84.18;;;179.80;1894.40;;;;;;5014268;28;20026;-66
2021/03/10 05:59:30;;;;;;;124.25;84.75;;;179.60;1920.00;;;;;;5027520;28;20056;-66
2021/03/10 06:01:56;;;;;;;121.18;80.15;;;179.70;1920.00;;;;;;5033999;28;20472;-67
2021/03/10 06:04:24;;;;;;;122.88;81.72;;;179.70;1920.00;;;;;;5033902;28;20030;-67
2021/03/10 06:06:49;;;;;;;130.32;87.72;;;179.90;1894.40;;;;;;5033736;28;20026;-65
2021/03/10 06:09:18;;;;;;;86.90;67.85;;;179.90;1894.40;;;;;;5033759;28;20040;-67
2021/03/10 06:11:56;;;;;;;97.63;65.05;;;179.90;1894.40;;;;;;5033590;28;20388;-66
2021/03/10 06:14:23;;;;;;;110.10;68.32;;;180.00;1894.40;;;;;;5033491;28;20495;-68
2021/03/10 06:17:06;;;;;;;96.38;67.07;;;180.00;1868.80;;;;;;5033501;28;20065;-66
2021/03/10 06:19:51;;;;;;;80.28;59.22;;;179.90;1894.40;;;;;;5033470;28;20499;-67
2021/03/10 06:22:17;;;;;;;98.63;70.78;;;179.90;1894.40;;;;;;5033337;28;20025;-67
2021/03/10 06:24:43;;;;;;;100.65;70.28;;;180.10;1868.80;;;;;;5033147;28;20057;-64
2021/03/10 06:27:10;;;;;;;94.68;62.72;;;180.10;1868.80;;;;;;5033215;28;20029;-67
2021/03/10 06:29:36;;;;;;;89.57;60.00;;;180.10;1868.80;;;;;;5033231;28;20533;-67
2021/03/10 06:32:09;;;;;;;93.97;61.67;;;204.80;1843.20;;;;;;5032580;28;20142;-67
2021/03/10 06:34:49;;;;;;;97.05;65.72;;;180.10;1868.80;;;;;;5032021;28;20109;-66
2021/03/10 06:37:29;;;;;;;87.53;59.17;;;204.90;1843.20;;;;;;5033109;28;20022;-67
2021/03/10 06:40:09;;;;;;;142.20;76.43;;;205.00;1868.80;;;;;;5013271;28;20068;-66
2021/03/10 06:42:35;;;;;;;101.35;67.45;;;204.80;1868.80;;;;;;5013278;28;20392;-67
2021/03/10 06:45:01;;;;;;;111.88;66.38;;;204.80;1868.80;;;;;;5013218;28;20026;-69
2021/03/10 06:47:37;;;;;;;102.30;65.28;;;204.80;1894.40;;;;;;5013934;28;20026;-68
2021/03/10 06:50:07;;;;;;;110.60;65.90;;;204.80;1868.80;;;;;;5006456;28;20174;-67
2021/03/10 06:52:34;;;;;;;106.70;64.60;;;204.80;1894.40;;;;;;5018736;28;20037;-68
2021/03/10 06:55:01;;;;;;;76.63;49.28;;;204.80;1868.80;;;;;;5030783;28;20033;-67
2021/03/10 06:57:27;;;;;;;66.75;44.35;;;180.10;1868.80;;;;;;5029388;28;20029;-64
2021/03/10 06:59:55;;;;;;;105.45;65.75;;;180.10;1868.80;;;;;;5012512;28;20036;-62
2021/03/10 07:02:29;;;;;;;84.95;54.45;;;204.90;1868.80;;;;;;5023230;28;20040;-65
2021/03/10 07:04:56;;;;;;;103.85;65.60;;;204.90;1868.80;;;;;;5031596;28;20029;-63
2021/03/10 07:07:24;;;;;;;79.95;53.10;;;204.90;1868.80;;;;;;5031793;28;20033;-62
2021/03/10 07:09:50;;;;;;;62.03;44.88;;;205.10;1843.20;;;;;;5029424;28;20032;-64
2021/03/10 07:12:18;;;;;;;63.65;42.70;;;205.00;1843.20;;;;;;5021739;28;20037;-64
2021/03/10 07:14:46;;;;;;;82.72;52.67;;;205.10;1843.20;;;;;;5024774;28;20016;-62
2021/03/10 07:17:14;;;;;;;97.40;63.50;;;205.10;1843.20;;;;;;5031677;28;20028;-63
2021/03/10 07:19:41;;;;;;;78.38;55.15;;;205.20;1817.60;;;;;;5031432;28;20022;-63
2021/03/10 07:22:10;;;;;;;66.53;44.45;;;205.10;1843.20;;;;;;5031723;28;20093;-62
2021/03/10 07:24:36;;;;;;;77.72;53.65;;;205.10;1843.20;;;;;;5031616;28;20025;-63
2021/03/10 07:27:03;;;;;;;72.35;48.08;;;205.10;1843.20;;;;;;5031057;28;20028;-62
2021/03/10 07:29:38;;;;;;;64.85;45.45;;;205.00;1843.20;;;;;;5031462;28;20072;-62
2021/03/10 07:32:05;;;;;;;52.65;40.22;;;204.80;1843.20;;;;;;5031035;28;20080;-62
2021/03/10 07:34:34;;;;;;;73.78;47.33;;;205.00;1868.80;;;;;;5031663;28;20025;-62
2021/03/10 07:37:10;;;;;;;83.82;55.05;;;205.00;1868.80;;;;;;5031593;28;20052;-63
2021/03/10 07:39:36;;;;;;;82.43;56.05;;;205.10;1868.80;;;;;;5014013;28;20018;-65
2021/03/10 07:42:16;;;;;;;123.88;85.82;;;205.10;1868.80;;;;;;5011845;28;20025;-64
2021/03/10 07:44:42;;;;;;;141.38;99.78;;;205.10;1843.20;;;;;;5011180;28;20057;-64
2021/03/10 07:47:08;;;;;;;158.90;111.95;;;205.00;1868.80;;;;;;5011823;28;20064;-66
2021/03/10 07:49:34;;;;;;;185.10;127.32;;;204.80;1894.40;;;;;;5011843;28;20057;-65
2021/03/10 07:52:04;;;;;;;216.93;147.52;;;204.80;1894.40;;;;;;5012146;28;20026;-65
2021/03/10 07:54:31;;;;;;;153.43;107.93;;;204.80;1868.80;;;;;;5011710;28;20022;-64
2021/03/10 07:57:13;;;;;;;141.80;104.43;;;180.10;1894.40;;;;;;5021285;28;20487;-64
2021/03/10 07:59:59;;;;;;;153.60;104.20;;;180.10;1868.80;;;;;;5016999;28;20056;-64
2021/03/10 08:02:26;;;;;;;89.10;59.25;;;180.10;1894.40;;;;;;5011156;28;20042;-65
2021/03/10 08:05:02;;;;;;;72.00;49.47;;;180.00;1920.00;;;;;;5003453;28;20029;-65
2021/03/10 08:07:32;;;;;;;58.33;44.30;;;180.00;1920.00;;;;;;5011854;28;20076;-63
2021/03/10 08:09:58;;;;;;;89.90;63.38;;;179.90;1920.00;;;;;;5011512;28;20476;-64
2021/03/10 08:12:38;;;;;;;87.25;57.00;;;180.00;1920.00;;;;;;5011442;28;20061;-65
2021/03/10 08:15:18;;;;;;;58.00;43.42;;;180.10;1920.00;;;;;;5011535;28;20404;-64
2021/03/10 08:17:45;;;;;;;44.33;37.08;;;180.10;1894.40;;;;;;5011260;28;20048;-65
2021/03/10 08:20:11;;;;;;;43.50;32.35;;;204.80;1894.40;;;;;;5011304;28;20034;-62
2021/03/10 08:22:37;;;;;;;81.75;52.38;;;180.00;1868.80;;;;;;5011414;28;20465;-65
2021/03/10 08:25:05;;;;;;;85.32;54.85;;;180.00;1894.40;;;;;;5011497;28;20033;-63
2021/03/10 08:27:39;;;;;;;126.40;77.57;;;180.00;1894.40;;;;;;5005818;28;20161;-62
2021/03/10 08:30:10;;;;;;;44.58;32.50;;;179.80;1894.40;;;;;;5011746;28;20053;-64
2021/03/10 08:32:36;;;;;;;126.60;80.38;;;179.60;1920.00;;;;;;5010806;28;20057;-62
2021/03/10 08:35:14;;;;;;;68.38;47.50;;;179.80;1920.00;;;;;;5010984;28;20365;-63
2021/03/10 08:37:50;;;;;;;53.38;38.10;;;180.00;1920.00;;;;;;5010967;28;20049;-63
2021/03/10 08:40:19;;;;;;;64.10;39.03;;;180.00;1894.40;;;;;;5011742;28;20105;-63
2021/03/10 08:42:45;;;;;;;61.97;39.85;;;179.90;1894.40;;;;;;5011222;28;20059;-63
2021/03/10 08:45:22;;;;;;;49.05;34.95;;;179.90;1920.00;;;;;;5011415;28;20061;-63
2021/03/10 08:48:04;;;;;;;37.03;26.75;;;179.80;1894.40;;;;;;5011145;28;20109;-63
2021/03/10 08:50:54;;;;;;;106.68;67.65;;;179.80;1868.80;;;;;;5011602;28;20105;-63
2021/03/10 08:53:24;;;;;;;133.50;81.07;;;180.00;1868.80;;;;;;5010644;28;20073;-63
2021/03/10 08:55:50;;;;;;;97.90;60.85;;;179.90;1868.80;;;;;;5011564;28;20033;-63
2021/03/10 08:58:17;;;;;;;75.07;48.65;;;179.90;1894.40;;;;;;5016076;28;20368;-63
2021/03/10 09:00:44;;;;;;;103.35;63.33;;;180.00;1894.40;;;;;;5014470;28;20025;-63
2021/03/10 09:03:17;;;;;;;87.38;60.92;;;180.10;1868.80;;;;;;5014411;28;20041;-65
2021/03/10 09:05:45;;;;;;;91.25;58.08;;;180.00;1894.40;;;;;;5014437;28;20022;-65
2021/03/10 09:08:15;;;;;;;87.32;56.67;;;180.00;1894.40;;;;;;5014364;28;20026;-65
2021/03/10 09:10:50;;;;;;;104.43;65.88;;;180.00;1894.40;;;;;;5014493;28;20025;-67
2021/03/10 09:13:19;;;;;;;74.97;47.78;;;180.00;1868.80;;;;;;5014125;28;20544;-66
2021/03/10 09:15:45;;;;;;;92.93;59.55;;;179.70;1920.00;;;;;;5014453;28;20049;-64
2021/03/10 09:18:10;;;;;;;71.03;50.40;;;179.90;1868.80;;;;;;5014365;28;20026;-64
2021/03/10 09:20:39;;;;;;;70.47;50.45;;;179.80;1868.80;;;;;;5013936;28;20503;-63
2021/03/10 09:23:06;;;;;;;107.22;70.50;;;179.70;1868.80;;;;;;5014162;28;20023;-63
2021/03/10 09:25:34;;;;;;;91.03;59.92;;;179.90;1894.40;;;;;;5013948;28;20071;-63
2021/03/10 09:28:11;;;;;;;108.20;70.45;;;180.00;1868.80;;;;;;5022262;28;20028;-62
2021/03/10 09:30:39;;;;;;;89.72;58.85;;;179.90;1894.40;;;;;;5013591;28;20029;-61
2021/03/10 09:33:05;;;;;;;110.95;83.70;;;180.00;1868.80;;;;;;5013875;28;20589;-63
2021/03/10 09:35:33;;;;;;;115.30;90.43;;;180.00;1894.40;;;;;;5013758;28;20025;-61
2021/03/10 09:38:04;;;;;;;89.10;60.97;;;180.10;1894.40;;;;;;5000414;28;20030;-61
2021/03/10 09:40:36;;;;;;;98.95;69.90;;;204.80;1894.40;;;;;;5019775;28;20026;-61
2021/03/10 09:43:05;;;;;;;81.60;57.67;;;180.10;1894.40;;;;;;5013954;28;20120;-62
2021/03/10 09:45:32;;;;;;;80.78;53.05;;;204.80;1868.80;;;;;;5014276;28;20358;-61
2021/03/10 09:47:58;;;;;;;104.28;73.10;;;180.10;1843.20;;;;;;5013860;28;20018;-63
2021/03/10 09:50:48;;;;;;;119.65;87.10;;;180.10;1843.20;;;;;;5013968;28;20022;-62
2021/03/10 09:53:21;;;;;;;90.85;61.10;;;205.00;1843.20;;;;;;5008490;28;20052;-62
2021/03/10 09:55:48;;;;;;;73.07;50.25;;;205.00;1843.20;;;;;;5013813;28;20492;-62
2021/03/10 09:58:13;;;;;;;99.47;66.85;;;204.90;1843.20;;;;;;5013754;28;20041;-63
2021/03/10 10:00:42;;;;;;;87.63;58.72;;;204.90;1868.80;;;;;;5013693;28;20026;-63
2021/03/10 10:03:08;;;;;;;90.38;63.75;;;204.90;1868.80;;;;;;5013618;28;20499;-62
2021/03/10 10:05:36;;;;;;;84.60;62.75;;;204.90;1894.40;;;;;;5013599;28;20128;-62
2021/03/10 10:08:04;;;;;;;105.50;77.25;;;204.90;1868.80;;;;;;5013394;28;20034;-62
2021/03/10 10:10:31;;;;;;;122.80;74.55;;;204.90;1894.40;;;;;;5013881;28;20354;-63
2021/03/10 10:12:57;;;;;;;92.38;64.30;;;204.80;1843.20;;;;;;5013483;28;20042;-64
2021/03/10 10:15:26;;;;;;;103.63;69.82;;;204.90;1868.80;;;;;;5013347;28;20025;-64
2021/03/10 10:17:56;;;;;;;64.00;45.47;;;204.90;1868.80;;;;;;5013296;28;20030;-63
2021/03/10 10:20:24;;;;;;;66.95;46.85;;;204.80;1868.80;;;;;;5013568;28;20419;-64
2021/03/10 10:22:51;;;;;;;82.13;49.05;;;204.80;1894.40;;;;;;5013383;28;20393;-65
2021/03/10 10:25:17;;;;;;;76.13;49.65;;;204.80;1868.80;;;;;;5013298;28;20037;-61
2021/03/10 10:27:44;;;;;;;81.22;55.53;;;204.80;1894.40;;;;;;5021087;28;20054;-61
2021/03/10 10:30:13;;;;;;;60.22;40.58;;;204.80;1894.40;;;;;;5013354;28;20033;-62
2021/03/10 10:32:40;;;;;;;80.35;49.25;;;180.10;1894.40;;;;;;5012655;28;20085;-61
2021/03/10 10:35:06;;;;;;;80.72;50.03;;;180.10;1868.80;;;;;;5013188;28;20022;-63
2021/03/10 10:37:33;;;;;;;66.25;44.35;;;204.80;1894.40;;;;;;5012695;28;20026;-62
2021/03/10 10:39:58;;;;;;;116.55;66.63;;;180.10;1894.40;;;;;;5013075;28;20022;-63
2021/03/10 10:42:26;;;;;;;74.07;55.38;;;;;;;;;;5013393;28;20053;-62
2021/03/10 10:44:52;;;;;;;88.32;60.08;;;180.10;1868.80;;;;;;5012743;28;20029;-61
2021/03/10 10:47:19;;;;;;;69.53;53.20;;;180.10;1868.80;;;;;;5013009;28;20025;-63
2021/03/10 10:49:44;;;;;;;77.35;56.33;;;204.80;1894.40;;;;;;5012845;28;20017;-62
2021/03/10 10:52:10;;;;;;;87.45;66.50;;;204.80;1843.20;;;;;;5012790;28;20060;-63
2021/03/10 10:54:36;;;;;;;52.80;39.42;;;204.80;1868.80;;;;;;5012743;28;20032;-62
2021/03/10 10:57:02;;;;;;;50.15;37.53;;;204.80;1843.20;;;;;;5015577;28;20036;-63
2021/03/10 10:59:28;;;;;;;53.10;39.65;;;204.90;1817.60;;;;;;5012909;28;20046;-63
2021/03/10 11:01:54;;;;;;;62.97;44.60;;;180.00;1868.80;;;;;;5012728;28;20076;-63
2021/03/10 11:04:19;;;;;;;80.90;53.33;;;179.90;1868.80;;;;;;5012507;28;20025;-63
2021/03/10 11:06:45;;;;;;;91.28;60.08;;;179.80;1894.40;;;;;;5028127;28;20523;-63
2021/03/10 11:09:11;;;;;;;90.43;63.60;;;179.70;1920.00;;;;;;5022694;28;20065;-62
2021/03/10 11:11:37;;;;;;;100.03;65.78;;;179.70;1894.40;;;;;;5011929;28;20121;-63
2021/03/10 11:14:03;;;;;;;85.25;58.78;;;179.90;1894.40;;;;;;5012113;28;20033;-63
2021/03/10 11:16:29;;;;;;;71.25;51.17;;;179.90;1894.40;;;;;;5012258;28;20033;-63
2021/03/10 11:18:55;;;;;;;62.92;43.42;;;179.80;1920.00;;;;;;5011900;28;20076;-62
2021/03/10 11:21:21;;;;;;;79.07;58.80;;;179.60;1920.00;;;;;;5011617;28;20061;-62
2021/03/10 11:23:47;;;;;;;72.65;49.40;;;179.90;1920.00;;;;;;5012183;28;20476;-63
2021/03/10 11:26:14;;;;;;;57.92;43.15;;;180.10;1868.80;;;;;;5014965;28;20113;-63
2021/03/10 11:28:40;;;;;;;55.95;41.47;;;180.10;1868.80;;;;;;5016268;28;20072;-63
2021/03/10 11:31:07;;;;;;;63.70;47.17;;;204.80;1868.80;;;;;;5011709;28;20515;-62
2021/03/10 11:33:34;;;;;;;55.35;41.42;;;204.80;1868.80;;;;;;5011860;28;20034;-62
2021/03/10 11:36:00;;;;;;;71.28;50.67;;;180.10;1843.20;;;;;;5011865;28;20025;-62
2021/03/10 11:38:26;;;;;;;74.00;52.25;;;180.10;1817.60;;;;;;5012010;28;20033;-64
2021/03/10 11:40:51;;;;;;;101.75;56.97;;;205.00;1792.00;;;;;;5011757;28;20551;-63
2021/03/10 11:43:17;;;;;;;78.03;50.63;;;205.20;1766.40;;;;;;5011934;28;20041;-62
2021/03/10 11:45:43;;;;;;;45.53;32.60;;;205.00;1766.40;;;;;;5011674;28;20381;-63
2021/03/10 11:48:09;;;;;;;43.95;32.35;;;205.10;1740.80;;;;;;5011746;28;20025;-63
2021/03/10 11:50:37;;;;;;;107.43;66.10;;;205.10;1740.80;;;;;;5011900;28;20033;-63
2021/03/10 11:53:04;;;;;;;39.33;28.73;;;205.20;1740.80;;;;;;5011459;28;20040;-62
2021/03/10 11:55:30;;;;;;;41.78;32.30;;;205.00;1715.20;;;;;;5011797;28;20018;-62
2021/03/10 11:57:56;;;;;;;35.80;26.23;;;205.00;1740.80;;;;;;5027898;28;20026;-62
2021/03/10 12:00:22;;;;;;;35.05;28.52;;;204.90;1689.60;;;;;;5012407;28;20381;-64
2021/03/10 12:02:48;;;;;;;37.95;31.85;;;204.80;1715.20;;;;;;5011728;28;20740;-62
2021/03/10 12:05:15;;;;;;;27.13;20.55;;;180.10;1715.20;;;;;;5018401;28;20127;-62
2021/03/10 12:07:40;;;;;;;29.77;22.42;;;179.90;1689.60;;;;;;5031436;28;20492;-62
2021/03/10 12:10:06;;;;;;;40.53;29.35;;;179.80;1715.20;;;;;;5031532;28;20052;-65